Time;durP1;ratioP1;P1;durP2;ratioP2;P2;SDS_P1;SDS_P2;PMS_P1;PMS_P2;Temp;Humidity;BMP_temperature;BMP_pressure;BME280_temperature;BME280_humidity;BME280_pressure;Samples;Min_cycle;Max_cycle;Signal;HPM_P1;HPM_P2
2022/07/01 00:00:56;;;;;;;7.43;5.83;;;20.50;99.90;;;;;;5052527;28;20886;-62
2022/07/01 00:03:23;;;;;;;6.03;5.47;;;20.40;99.90;;;;;;5042354;28;21024;-65
2022/07/01 00:05:50;;;;;;;5.90;5.30;;;20.40;99.90;;;;;;5033552;28;20464;-65
2022/07/01 00:08:18;;;;;;;10.40;6.27;;;20.50;99.90;;;;;;5047859;28;20557;-65
2022/07/01 00:10:45;;;;;;;7.60;5.40;;;20.40;99.90;;;;;;5054718;28;20544;-64
2022/07/01 00:13:13;;;;;;;5.60;5.10;;;20.40;99.90;;;;;;5055823;28;20946;-65
2022/07/01 00:15:42;;;;;;;5.53;5.03;;;20.40;99.90;;;;;;5040817;28;20519;-65
2022/07/01 00:18:09;;;;;;;5.90;5.40;;;20.40;99.90;;;;;;5048709;28;20469;-65
2022/07/01 00:20:37;;;;;;;7.37;5.30;;;20.20;99.90;;;;;;5052835;28;20486;-65
2022/07/01 00:23:04;;;;;;;6.00;5.50;;;20.20;99.90;;;;;;5039646;28;20463;-64
2022/07/01 00:25:32;;;;;;;5.30;4.80;;;20.10;99.90;;;;;;5035695;28;20490;-64
2022/07/01 00:27:59;;;;;;;5.20;4.80;;;20.10;99.90;;;;;;5037395;28;20468;-64
2022/07/01 00:30:28;;;;;;;5.73;5.10;;;20.00;99.90;;;;;;5052475;28;20494;-64
2022/07/01 00:32:57;;;;;;;6.10;5.50;;;20.00;99.90;;;;;;5044098;28;20553;-64
2022/07/01 00:35:24;;;;;;;5.17;4.40;;;19.90;99.90;;;;;;5036590;28;20493;-64
2022/07/01 00:37:52;;;;;;;4.60;4.00;;;19.80;99.90;;;;;;5046261;28;20464;-65
2022/07/01 00:40:19;;;;;;;4.30;3.90;;;19.70;99.90;;;;;;5057128;28;20469;-65
2022/07/01 00:42:46;;;;;;;4.40;3.20;;;19.70;99.90;;;;;;5055839;28;20518;-65
2022/07/01 00:45:14;;;;;;;4.13;3.83;;;19.60;99.90;;;;;;5057182;28;20446;-65
2022/07/01 00:47:43;;;;;;;4.07;3.50;;;19.60;99.90;;;;;;5048577;28;20502;-65
2022/07/01 00:50:14;;;;;;;3.60;3.30;;;19.50;99.90;;;;;;5054055;28;20480;-65
2022/07/01 00:52:43;;;;;;;5.80;3.97;;;19.40;99.90;;;;;;5045245;28;20527;-64
2022/07/01 00:55:12;;;;;;;4.80;4.40;;;19.40;99.90;;;;;;5057453;28;20841;-65
2022/07/01 00:57:41;;;;;;;5.87;5.30;;;19.20;99.90;;;;;;5054696;28;20456;-65
2022/07/01 01:00:11;;;;;;;4.83;4.33;;;19.20;99.90;;;;;;5053955;28;20480;-64
2022/07/01 01:02:39;;;;;;;5.60;5.10;;;19.10;99.90;;;;;;5046951;28;20458;-64
2022/07/01 01:05:10;;;;;;;5.80;5.20;;;19.10;99.90;;;;;;5036462;28;20457;-65
2022/07/01 01:07:39;;;;;;;6.77;6.17;;;19.00;99.90;;;;;;5036187;28;20488;-64
2022/07/01 01:10:07;;;;;;;7.10;6.50;;;19.00;99.90;;;;;;5056803;28;21037;-64
2022/07/01 01:12:35;;;;;;;7.47;6.77;;;18.90;99.90;;;;;;5040171;28;20456;-64
2022/07/01 01:15:02;;;;;;;6.60;6.10;;;18.80;99.90;;;;;;5047878;28;20483;-64
2022/07/01 01:17:29;;;;;;;7.50;6.90;;;18.70;99.90;;;;;;5054687;28;20463;-66
2022/07/01 01:19:57;;;;;;;8.73;7.60;;;18.60;99.90;;;;;;5046255;28;20573;-65
2022/07/01 01:22:26;;;;;;;7.97;7.30;;;18.50;99.90;;;;;;5054920;28;20495;-65
2022/07/01 01:24:53;;;;;;;7.40;6.80;;;18.40;99.90;;;;;;5036836;28;20492;-65
2022/07/01 01:27:20;;;;;;;7.43;6.70;;;18.30;99.90;;;;;;5035172;28;20503;-65
2022/07/01 01:29:48;;;;;;;8.57;7.80;;;18.30;99.90;;;;;;5052133;28;20553;-66
2022/07/01 01:32:15;;;;;;;8.70;7.90;;;18.30;99.90;;;;;;5049378;28;20460;-66
2022/07/01 01:34:42;;;;;;;7.87;7.17;;;18.20;99.90;;;;;;5043953;28;20603;-66
2022/07/01 01:37:10;;;;;;;6.67;6.07;;;18.20;99.90;;;;;;5041318;28;20475;-66
2022/07/01 01:39:39;;;;;;;5.40;5.00;;;18.10;99.90;;;;;;5050822;28;20476;-66
2022/07/01 01:42:07;;;;;;;6.00;4.47;;;18.00;99.90;;;;;;5053103;28;20951;-66
2022/07/01 01:44:34;;;;;;;4.47;4.07;;;18.00;99.90;;;;;;5036136;28;20995;-65
2022/07/01 01:47:01;;;;;;;5.10;4.30;;;18.00;99.90;;;;;;5035246;28;20951;-66
2022/07/01 01:49:29;;;;;;;6.00;5.40;;;17.90;99.90;;;;;;5046404;28;21008;-66
2022/07/01 01:51:57;;;;;;;4.50;4.10;;;17.90;99.90;;;;;;5054506;28;21034;-66
2022/07/01 01:54:24;;;;;;;5.43;4.93;;;17.90;99.90;;;;;;5053467;28;20952;-66
2022/07/01 01:56:53;;;;;;;7.87;5.93;;;17.90;99.90;;;;;;5053603;28;21011;-64
2022/07/01 01:59:20;;;;;;;5.83;5.37;;;17.90;99.90;;;;;;5054950;28;20541;-64
2022/07/01 02:01:48;;;;;;;6.30;5.30;;;17.80;99.90;;;;;;5054312;28;20481;-65
2022/07/01 02:04:15;;;;;;;5.40;4.90;;;17.70;99.90;;;;;;5035037;28;20947;-66
2022/07/01 02:06:43;;;;;;;5.77;4.43;;;17.70;99.90;;;;;;5035726;28;20598;-65
2022/07/01 02:09:10;;;;;;;5.73;5.10;;;17.70;99.90;;;;;;5034321;28;20873;-65
2022/07/01 02:11:38;;;;;;;4.00;3.67;;;17.70;99.90;;;;;;5047159;28;20483;-64
2022/07/01 02:14:06;;;;;;;5.13;4.73;;;17.60;99.90;;;;;;5053033;28;20802;-65
2022/07/01 02:16:34;;;;;;;4.70;3.97;;;17.60;99.90;;;;;;5039576;28;20540;-65
2022/07/01 02:19:01;;;;;;;4.50;4.10;;;17.50;99.90;;;;;;5045336;28;20467;-65
2022/07/01 02:21:29;;;;;;;5.10;3.97;;;17.50;99.90;;;;;;5051702;28;21052;-65
2022/07/01 02:23:56;;;;;;;3.83;3.53;;;17.50;99.90;;;;;;5042480;28;20474;-66
2022/07/01 02:26:24;;;;;;;5.30;3.63;;;17.40;99.90;;;;;;5047786;28;20460;-66
2022/07/01 02:28:51;;;;;;;3.97;3.43;;;17.40;99.90;;;;;;5054119;28;20466;-65
2022/07/01 02:31:19;;;;;;;3.07;2.57;;;17.30;99.90;;;;;;5051932;28;20496;-66
2022/07/01 02:33:47;;;;;;;3.37;2.97;;;17.30;99.90;;;;;;5052471;28;20959;-65
2022/07/01 02:36:15;;;;;;;3.37;2.20;;;17.20;99.90;;;;;;5053396;28;20981;-66
2022/07/01 02:38:42;;;;;;;2.40;2.20;;;17.20;99.90;;;;;;5053558;28;20515;-65
2022/07/01 02:41:09;;;;;;;3.20;2.43;;;17.20;99.90;;;;;;5052949;28;20572;-66
2022/07/01 02:43:37;;;;;;;2.60;2.40;;;17.30;99.90;;;;;;5053465;28;21000;-66
2022/07/01 02:46:04;;;;;;;2.40;2.20;;;17.30;99.90;;;;;;5054695;28;20485;-66
2022/07/01 02:48:33;;;;;;;2.83;1.90;;;17.20;99.90;;;;;;5052540;28;20465;-65
2022/07/01 02:51:00;;;;;;;3.40;2.37;;;17.20;99.90;;;;;;5037741;28;20853;-65
2022/07/01 02:53:27;;;;;;;2.60;2.40;;;17.20;99.90;;;;;;5049123;28;20563;-66
2022/07/01 02:55:55;;;;;;;3.00;2.80;;;17.20;99.90;;;;;;5053230;28;20479;-65
2022/07/01 02:58:22;;;;;;;3.60;3.30;;;17.20;99.90;;;;;;5053322;28;20565;-65
2022/07/01 03:00:52;;;;;;;3.70;3.40;;;17.10;99.90;;;;;;5050884;28;20554;-66
2022/07/01 03:03:19;;;;;;;4.43;3.60;;;17.10;99.90;;;;;;5041134;28;20462;-65
2022/07/01 03:05:48;;;;;;;5.00;3.40;;;17.10;99.90;;;;;;5034527;28;20516;-66
2022/07/01 03:08:16;;;;;;;4.00;3.70;;;17.00;99.90;;;;;;5047045;28;20627;-66
2022/07/01 03:10:43;;;;;;;3.80;3.50;;;17.00;99.90;;;;;;5053943;28;20980;-66
2022/07/01 03:13:10;;;;;;;5.07;4.40;;;17.00;99.90;;;;;;5051445;28;20957;-66
2022/07/01 03:15:38;;;;;;;4.20;3.80;;;16.90;99.90;;;;;;5023821;28;21133;-66
2022/07/01 03:18:05;;;;;;;4.17;3.77;;;16.80;99.90;;;;;;5029063;28;20497;-66
2022/07/01 03:20:32;;;;;;;4.13;3.73;;;16.80;99.90;;;;;;5045572;28;20575;-65
2022/07/01 03:23:01;;;;;;;5.50;4.17;;;16.80;99.90;;;;;;5042816;28;20589;-63
2022/07/01 03:25:28;;;;;;;4.20;3.83;;;16.80;99.90;;;;;;5040447;28;20973;-65
2022/07/01 03:27:55;;;;;;;4.63;4.23;;;16.80;99.90;;;;;;5041279;28;20493;-67
2022/07/01 03:30:23;;;;;;;4.70;4.10;;;16.80;99.90;;;;;;5047691;28;20491;-66
2022/07/01 03:32:50;;;;;;;4.83;3.77;;;16.80;99.90;;;;;;5051031;28;20464;-63
2022/07/01 03:38:07;;;;;;;4.47;4.00;;;16.60;99.90;;;;;;5039912;28;20445;-65
2022/07/01 03:40:34;;;;;;;6.27;4.20;;;16.60;99.90;;;;;;5034770;28;20477;-66
2022/07/01 03:43:02;;;;;;;4.13;3.73;;;16.50;99.90;;;;;;5044696;28;20510;-65
2022/07/01 03:45:29;;;;;;;4.97;3.90;;;16.50;99.90;;;;;;5052496;28;20529;-66
2022/07/01 03:47:56;;;;;;;4.33;3.37;;;16.40;99.90;;;;;;5049034;28;20517;-66
2022/07/01 03:50:25;;;;;;;4.27;3.30;;;16.40;99.90;;;;;;5050881;28;20534;-66
2022/07/01 03:54:29;;;;;;;3.70;3.40;;;16.30;99.90;;;;;;5052004;28;20559;-66
2022/07/01 03:55:42;;;;;;;3.53;3.23;;;16.30;99.90;;;;;;5051798;28;20476;-64
2022/07/01 03:58:09;;;;;;;3.40;3.10;;;16.30;99.90;;;;;;5033143;28;20449;-66
2022/07/01 04:00:38;;;;;;;4.53;2.60;;;16.20;99.90;;;;;;5034978;28;20471;-66
2022/07/01 04:03:06;;;;;;;3.77;2.60;;;16.20;99.90;;;;;;5050803;28;20510;-67
2022/07/01 04:05:35;;;;;;;2.70;2.17;;;16.10;99.90;;;;;;5043949;28;20456;-66
2022/07/01 04:09:58;;;;;;;3.40;3.10;;;16.10;99.90;;;;;;5091005;27;21016;-67
2022/07/01 04:12:25;;;;;;;4.10;2.67;;;16.00;99.90;;;;;;5089476;28;20462;-65
2022/07/01 04:14:52;;;;;;;5.00;3.20;;;15.90;99.90;;;;;;5082239;28;20946;-67
2022/07/01 04:17:20;;;;;;;2.63;2.43;;;15.80;99.90;;;;;;5085588;28;20459;-66
2022/07/01 04:19:47;;;;;;;6.63;3.43;;;15.60;99.90;;;;;;5087124;28;21093;-67
2022/07/01 04:25:03;;;;;;;4.60;3.03;;;15.40;99.90;;;;;;5070629;28;20458;-67
2022/07/01 04:27:30;;;;;;;4.10;3.07;;;15.40;99.90;;;;;;5070069;28;20489;-67
2022/07/01 04:32:27;;;;;;;5.73;3.53;;;15.20;99.90;;;;;;5086808;28;20466;-66
2022/07/01 04:34:54;;;;;;;3.37;3.07;;;15.10;99.90;;;;;;5092319;28;20454;-66
2022/07/01 04:37:21;;;;;;;4.03;3.23;;;15.20;99.90;;;;;;5089059;28;20537;-66
2022/07/01 04:39:49;;;;;;;4.53;3.03;;;15.20;99.90;;;;;;5089307;28;20896;-66
2022/07/01 04:42:18;;;;;;;2.90;2.70;;;15.20;99.90;;;;;;5069424;28;20459;-66
2022/07/01 04:44:46;;;;;;;3.53;2.73;;;15.30;99.90;;;;;;5071473;28;20475;-64
2022/07/01 04:47:13;;;;;;;4.40;2.80;;;15.30;99.90;;;;;;5069547;28;20465;-65
2022/07/01 04:49:40;;;;;;;3.60;2.80;;;15.30;99.90;;;;;;5069305;28;20537;-64
2022/07/01 04:52:08;;;;;;;5.23;2.80;;;15.30;99.90;;;;;;5063127;28;20474;-64
2022/07/01 04:54:35;;;;;;;6.17;3.30;;;15.30;99.90;;;;;;5065365;28;20509;-65
2022/07/01 04:57:03;;;;;;;3.40;2.80;;;15.30;99.90;;;;;;5071525;28;20497;-64
2022/07/01 04:59:32;;;;;;;3.93;2.80;;;15.40;99.90;;;;;;5069385;28;20455;-65
2022/07/01 05:01:59;;;;;;;3.43;3.13;;;15.40;99.90;;;;;;5069280;28;20518;-64
2022/07/01 05:04:28;;;;;;;6.50;3.10;;;15.40;99.90;;;;;;5069276;28;20440;-64
2022/07/01 05:06:55;;;;;;;7.87;3.53;;;15.50;99.90;;;;;;5069359;28;20456;-63
2022/07/01 05:09:23;;;;;;;3.67;3.37;;;15.50;99.90;;;;;;5068908;28;20475;-64
2022/07/01 05:11:50;;;;;;;5.70;3.50;;;15.50;99.90;;;;;;5069598;28;20466;-64
2022/07/01 05:14:17;;;;;;;6.10;3.10;;;15.50;99.90;;;;;;5069330;28;20450;-64
2022/07/01 05:16:46;;;;;;;3.83;2.90;;;15.50;99.90;;;;;;5068903;28;20451;-65
2022/07/01 05:22:01;;;;;;;3.87;2.77;;;15.70;99.90;;;;;;5055959;28;20452;-65
2022/07/01 05:24:31;;;;;;;4.37;3.17;;;15.70;99.90;;;;;;5055658;28;20526;-65
2022/07/01 05:26:59;;;;;;;3.67;3.37;;;15.70;99.90;;;;;;5055509;28;20440;-65
2022/07/01 05:29:27;;;;;;;3.60;3.30;;;15.70;99.90;;;;;;5055331;28;20483;-64
2022/07/01 05:31:56;;;;;;;4.13;3.50;;;15.80;99.90;;;;;;5055303;28;20476;-65
2022/07/01 05:34:23;;;;;;;4.30;3.90;;;15.80;99.90;;;;;;5055489;28;20440;-65
2022/07/01 05:36:51;;;;;;;5.00;3.87;;;15.80;99.90;;;;;;5055317;28;20459;-65
2022/07/01 05:39:18;;;;;;;5.93;4.20;;;15.80;99.90;;;;;;5055905;28;20811;-63
2022/07/01 05:41:45;;;;;;;4.43;3.93;;;15.80;99.90;;;;;;5055628;28;20468;-63
2022/07/01 05:44:13;;;;;;;6.13;3.97;;;15.90;99.90;;;;;;5055314;28;20455;-62
2022/07/01 05:46:40;;;;;;;4.87;4.50;;;15.90;99.90;;;;;;5056004;28;20466;-63
2022/07/01 05:49:09;;;;;;;7.30;5.17;;;15.90;99.90;;;;;;5055386;28;20483;-63
2022/07/01 05:51:37;;;;;;;5.40;4.67;;;15.90;99.90;;;;;;5055317;28;20570;-62
2022/07/01 05:54:04;;;;;;;6.13;5.53;;;15.90;99.90;;;;;;5055140;28;20444;-63
2022/07/01 05:56:32;;;;;;;6.43;5.83;;;15.90;99.90;;;;;;5055233;28;20817;-63
2022/07/01 05:58:59;;;;;;;11.63;6.60;;;15.90;99.90;;;;;;5054995;28;20836;-63
2022/07/01 06:01:27;;;;;;;5.93;5.43;;;15.90;99.90;;;;;;5060527;28;20468;-60
2022/07/01 06:03:54;;;;;;;5.70;5.20;;;15.90;99.90;;;;;;5058764;28;20495;-60
2022/07/01 06:06:23;;;;;;;6.80;6.20;;;15.90;99.90;;;;;;5058926;28;20452;-61
2022/07/01 06:08:50;;;;;;;6.67;5.97;;;16.00;99.90;;;;;;5060835;28;20472;-61
2022/07/01 06:11:17;;;;;;;6.57;5.20;;;16.00;99.90;;;;;;5058317;28;20486;-60
2022/07/01 06:13:45;;;;;;;7.77;5.40;;;16.00;99.90;;;;;;5054829;28;21001;-61
2022/07/01 06:16:12;;;;;;;6.93;5.60;;;16.00;99.90;;;;;;5055389;28;20810;-61
2022/07/01 06:18:39;;;;;;;6.07;5.33;;;16.00;99.90;;;;;;5055414;28;20462;-61
2022/07/01 06:21:07;;;;;;;6.80;5.30;;;16.10;99.90;;;;;;5057234;28;20979;-62
2022/07/01 06:23:35;;;;;;;6.37;4.80;;;16.10;99.90;;;;;;5056971;28;20472;-62
2022/07/01 06:26:03;;;;;;;5.90;5.40;;;16.20;99.90;;;;;;5057433;28;20448;-62
2022/07/01 06:28:30;;;;;;;5.40;5.00;;;16.20;99.90;;;;;;5058319;28;20484;-60
2022/07/01 06:30:58;;;;;;;9.20;6.23;;;16.30;99.90;;;;;;5058257;28;20519;-63
2022/07/01 06:33:29;;;;;;;5.93;5.20;;;16.50;99.90;;;;;;5056835;28;20464;-61
2022/07/01 06:35:56;;;;;;;6.50;4.60;;;16.50;99.90;;;;;;5059359;28;20466;-62
2022/07/01 06:38:24;;;;;;;5.67;5.10;;;16.50;99.90;;;;;;5068310;28;20512;-61
2022/07/01 06:43:34;;;;;;;5.67;5.17;;;16.50;99.90;;;;;;5059759;28;20487;-61
2022/07/01 06:46:01;;;;;;;6.07;5.53;;;16.50;99.90;;;;;;5080747;28;20432;-62
2022/07/01 06:48:29;;;;;;;6.07;5.20;;;16.60;99.90;;;;;;5060442;28;20992;-63
2022/07/01 06:50:57;;;;;;;9.73;6.30;;;16.70;99.90;;;;;;5062023;28;20463;-62
2022/07/01 06:53:24;;;;;;;6.20;5.60;;;16.80;99.90;;;;;;5074120;28;20443;-59
2022/07/01 06:55:53;;;;;;;6.80;6.20;;;16.90;99.90;;;;;;5056872;28;20510;-61
2022/07/01 06:58:20;;;;;;;7.13;6.50;;;16.80;99.90;;;;;;5061445;28;20534;-62
2022/07/01 07:00:48;;;;;;;6.70;6.20;;;16.80;99.90;;;;;;5060482;28;20472;-61
2022/07/01 07:03:15;;;;;;;6.53;5.90;;;16.70;99.90;;;;;;5052435;28;20613;-62
2022/07/01 07:05:42;;;;;;;6.93;6.20;;;16.70;99.90;;;;;;5052797;28;20463;-62
2022/07/01 07:08:10;;;;;;;6.90;5.90;;;16.60;99.90;;;;;;5052161;28;20936;-62
2022/07/01 07:10:37;;;;;;;6.90;6.30;;;16.60;99.90;;;;;;5052648;28;20561;-62
2022/07/01 07:13:06;;;;;;;6.90;6.30;;;16.60;99.90;;;;;;5053271;28;20556;-61
2022/07/01 07:15:33;;;;;;;10.30;7.13;;;16.60;99.90;;;;;;5053741;28;20503;-62
2022/07/01 07:18:00;;;;;;;8.00;7.20;;;16.60;99.90;;;;;;5051755;28;21167;-62
2022/07/01 07:20:28;;;;;;;8.47;7.57;;;16.60;99.90;;;;;;5051675;28;20529;-60
2022/07/01 07:22:55;;;;;;;7.33;6.73;;;16.50;99.90;;;;;;5053765;28;20455;-60
2022/07/01 07:25:23;;;;;;;8.27;7.57;;;16.50;99.90;;;;;;5053459;28;21020;-60
2022/07/01 07:27:50;;;;;;;8.03;7.23;;;16.50;99.90;;;;;;5053364;28;20506;-58
2022/07/01 07:30:19;;;;;;;8.90;8.00;;;16.50;99.90;;;;;;5051259;28;20488;-60
2022/07/01 07:32:47;;;;;;;9.10;8.23;;;16.40;99.90;;;;;;5053591;28;20788;-61
2022/07/01 07:35:15;;;;;;;11.87;10.40;;;16.30;99.90;;;;;;5052053;28;20487;-60
2022/07/01 07:37:43;;;;;;;10.07;9.03;;;16.30;99.90;;;;;;5051412;28;20487;-61
2022/07/01 07:40:13;;;;;;;9.60;8.57;;;16.20;99.90;;;;;;5051941;28;20456;-61
2022/07/01 07:42:41;;;;;;;10.57;9.53;;;16.10;99.90;;;;;;5052515;28;20924;-60
2022/07/01 07:45:11;;;;;;;11.03;10.10;;;16.10;99.90;;;;;;5051935;28;20534;-60
2022/07/01 07:47:42;;;;;;;11.67;10.50;;;16.00;99.90;;;;;;5051320;28;20448;-61
2022/07/01 07:50:11;;;;;;;11.57;10.47;;;15.80;99.90;;;;;;5052794;28;20519;-61
2022/07/01 07:52:38;;;;;;;11.40;10.30;;;15.80;99.90;;;;;;5052679;28;20448;-60
2022/07/01 07:55:07;;;;;;;10.63;9.53;;;15.70;99.90;;;;;;5050409;28;20463;-61
2022/07/01 07:57:36;;;;;;;10.63;9.60;;;15.70;99.90;;;;;;5052326;28;20498;-61
2022/07/01 08:00:04;;;;;;;10.67;9.80;;;15.70;99.90;;;;;;5051645;28;20837;-62
2022/07/01 08:02:31;;;;;;;11.00;10.00;;;15.70;99.90;;;;;;5052709;28;20444;-61
2022/07/01 08:05:00;;;;;;;11.70;10.67;;;15.70;99.90;;;;;;5051988;28;20444;-60
2022/07/01 08:07:28;;;;;;;12.27;11.17;;;15.80;99.90;;;;;;5052468;28;20445;-61
2022/07/01 08:09:55;;;;;;;9.73;8.90;;;15.80;99.90;;;;;;5051348;28;20599;-61
2022/07/01 08:12:25;;;;;;;10.50;9.60;;;15.90;99.90;;;;;;5051428;28;20556;-60
2022/07/01 08:14:53;;;;;;;9.97;9.17;;;16.00;99.90;;;;;;5052812;28;20892;-64
2022/07/01 08:17:20;;;;;;;9.73;8.93;;;16.00;99.90;;;;;;5052463;28;20551;-64
2022/07/01 08:19:47;;;;;;;10.90;9.60;;;16.00;99.90;;;;;;5051051;28;20878;-64
2022/07/01 08:22:16;;;;;;;10.40;9.37;;;15.90;99.90;;;;;;5052432;28;20816;-61
2022/07/01 08:24:43;;;;;;;11.47;10.47;;;15.90;99.90;;;;;;5053146;28;20861;-62
2022/07/01 08:27:12;;;;;;;10.20;9.30;;;15.90;99.90;;;;;;5052238;28;20501;-62
2022/07/01 08:29:39;;;;;;;10.53;9.60;;;15.90;99.90;;;;;;5052666;28;20475;-62
2022/07/01 08:32:08;;;;;;;11.43;9.40;;;15.90;99.90;;;;;;5051804;28;20479;-61
2022/07/01 08:34:35;;;;;;;10.77;9.77;;;15.90;99.90;;;;;;5052527;28;20449;-62
2022/07/01 08:37:03;;;;;;;10.90;9.80;;;15.90;99.90;;;;;;5034306;28;20433;-61
2022/07/01 08:39:32;;;;;;;11.07;10.07;;;16.00;99.90;;;;;;5044417;28;20520;-62
2022/07/01 08:41:59;;;;;;;10.87;9.47;;;16.00;99.90;;;;;;5052073;28;20977;-62
2022/07/01 08:44:27;;;;;;;12.93;9.63;;;16.00;99.90;;;;;;5052092;28;20489;-63
2022/07/01 08:46:54;;;;;;;11.33;9.57;;;16.00;99.90;;;;;;5051288;28;20436;-62
2022/07/01 08:49:23;;;;;;;9.57;8.80;;;16.10;99.90;;;;;;5051977;28;20484;-61
2022/07/01 08:51:50;;;;;;;9.27;8.43;;;16.20;99.90;;;;;;5050971;28;20474;-61
2022/07/01 08:54:17;;;;;;;10.00;9.00;;;16.20;99.90;;;;;;5052075;28;20519;-61
2022/07/01 08:56:46;;;;;;;10.33;9.30;;;16.20;99.90;;;;;;5055128;28;20467;-62
2022/07/01 08:59:22;;;;;;;10.40;9.43;;;16.30;99.90;;;;;;5055408;28;20517;-61
2022/07/01 09:01:57;;;;;;;10.10;9.13;;;16.40;99.90;;;;;;5056051;28;20975;-61
2022/07/01 09:04:24;;;;;;;10.27;9.37;;;16.60;99.90;;;;;;5055724;28;20434;-62
2022/07/01 09:06:52;;;;;;;10.27;9.37;;;16.70;99.90;;;;;;5055078;28;20447;-62
2022/07/01 09:09:20;;;;;;;10.20;9.30;;;16.80;99.90;;;;;;5054677;28;20480;-60
2022/07/01 09:11:54;;;;;;;10.00;9.10;;;16.80;99.90;;;;;;5056023;28;20464;-62
2022/07/01 09:14:23;;;;;;;8.10;7.40;;;17.00;99.90;;;;;;5055588;28;20522;-62
2022/07/01 09:16:51;;;;;;;9.10;8.20;;;17.10;99.90;;;;;;5054984;28;20444;-61
2022/07/01 09:19:20;;;;;;;11.90;8.47;;;17.20;99.90;;;;;;5055704;28;20517;-61
2022/07/01 09:21:50;;;;;;;8.70;7.90;;;17.20;99.90;;;;;;5055130;28;20464;-61
2022/07/01 09:24:27;;;;;;;8.80;7.70;;;17.20;99.90;;;;;;5053462;28;20468;-62
2022/07/01 09:26:57;;;;;;;8.50;7.80;;;17.30;99.90;;;;;;5055295;28;20897;-61
2022/07/01 09:29:31;;;;;;;8.77;7.97;;;17.40;99.90;;;;;;5055388;28;20514;-60
2022/07/01 09:31:59;;;;;;;9.50;8.70;;;17.50;99.90;;;;;;5054158;28;20483;-60
2022/07/01 09:34:26;;;;;;;8.83;8.10;;;17.60;99.90;;;;;;5054048;28;20909;-59
2022/07/01 09:36:55;;;;;;;9.80;8.80;;;17.60;99.90;;;;;;5054105;28;20555;-60
2022/07/01 09:39:23;;;;;;;9.23;8.40;;;17.50;99.90;;;;;;5053850;28;20563;-58
2022/07/01 09:41:51;;;;;;;9.60;8.60;;;17.50;99.90;;;;;;5055114;28;20499;-61
2022/07/01 09:44:19;;;;;;;10.03;9.23;;;17.50;99.90;;;;;;5054512;28;20460;-61
2022/07/01 09:46:54;;;;;;;11.07;10.17;;;17.50;99.90;;;;;;5055478;28;20498;-60
2022/07/01 09:49:22;;;;;;;10.10;9.00;;;17.50;99.90;;;;;;5054263;28;20447;-60
2022/07/01 09:51:50;;;;;;;9.83;8.93;;;17.50;99.90;;;;;;5053904;28;20460;-60
2022/07/01 09:54:18;;;;;;;10.13;9.07;;;17.50;99.90;;;;;;5055252;28;20447;-61
2022/07/01 09:56:46;;;;;;;10.83;9.73;;;17.60;99.70;;;;;;5054301;28;20436;-60
2022/07/01 09:59:13;;;;;;;13.10;10.67;;;17.50;99.30;;;;;;5053758;28;20546;-59
2022/07/01 10:01:44;;;;;;;13.10;10.57;;;17.50;99.10;;;;;;5053204;28;20570;-61
2022/07/01 10:04:14;;;;;;;9.80;8.47;;;17.40;99.30;;;;;;5053791;28;20529;-61
2022/07/01 10:06:57;;;;;;;11.33;10.23;;;17.40;99.40;;;;;;5054806;28;20468;-61
2022/07/01 10:09:44;;;;;;;11.57;10.40;;;17.50;99.10;;;;;;5053417;28;20444;-61
2022/07/01 10:12:32;;;;;;;9.90;8.97;;;17.60;98.70;;;;;;5052811;28;20484;-60
2022/07/01 10:15:00;;;;;;;11.00;9.90;;;17.70;98.40;;;;;;5054536;28;20491;-61
2022/07/01 10:17:31;;;;;;;10.80;8.97;;;17.70;98.20;;;;;;5054919;28;20471;-60
2022/07/01 10:20:09;;;;;;;11.30;10.10;;;17.80;98.10;;;;;;5054211;28;20490;-59
2022/07/01 10:22:37;;;;;;;11.70;10.40;;;17.90;97.60;;;;;;5054323;28;20534;-61
2022/07/01 10:25:50;;;;;;;12.17;10.70;;;18.00;97.20;;;;;;5041490;28;20502;-60
2022/07/01 10:28:23;;;;;;;11.30;10.20;;;18.00;96.90;;;;;;5018100;28;20495;-59
2022/07/01 10:33:32;;;;;;;10.93;9.93;;;18.10;96.90;;;;;;5031407;28;20546;-63
2022/07/01 10:36:09;;;;;;;10.73;9.73;;;18.10;96.50;;;;;;5032716;28;20464;-63
2022/07/01 10:38:57;;;;;;;11.30;10.20;;;18.20;96.40;;;;;;5034452;28;20482;-65
2022/07/01 10:41:25;;;;;;;11.10;10.10;;;18.30;96.30;;;;;;5039339;28;20468;-64
2022/07/01 10:43:55;;;;;;;12.43;11.13;;;18.60;95.70;;;;;;5055641;28;20948;-64
2022/07/01 10:46:40;;;;;;;11.03;9.80;;;18.80;95.10;;;;;;5035665;28;20834;-65
2022/07/01 10:49:12;;;;;;;11.70;10.60;;;19.10;94.30;;;;;;5014635;28;20426;-64
2022/07/01 10:51:50;;;;;;;10.57;9.47;;;19.30;93.50;;;;;;5023866;28;20485;-63
2022/07/01 10:54:48;;;;;;;11.70;10.20;;;19.40;92.90;;;;;;5034262;28;20481;-63
2022/07/01 10:57:29;;;;;;;11.80;10.60;;;19.60;92.20;;;;;;5036684;28;20472;-63
2022/07/01 11:00:18;;;;;;;11.70;10.53;;;19.60;91.60;;;;;;5038190;28;20944;-64
2022/07/01 11:02:45;;;;;;;11.93;10.80;;;19.50;91.60;;;;;;5053560;28;20508;-63
2022/07/01 11:05:15;;;;;;;11.00;9.90;;;19.50;91.70;;;;;;5036635;28;20469;-64
2022/07/01 11:07:45;;;;;;;10.80;9.80;;;19.60;91.50;;;;;;5034086;28;20441;-64
2022/07/01 11:10:15;;;;;;;12.40;10.70;;;19.70;91.10;;;;;;5035040;28;20502;-63
2022/07/01 11:12:46;;;;;;;9.27;8.47;;;19.70;90.80;;;;;;5035716;28;20465;-65
2022/07/01 11:15:14;;;;;;;11.13;9.93;;;19.70;90.80;;;;;;5035126;28;20506;-64
2022/07/01 11:17:44;;;;;;;11.73;10.63;;;19.70;90.70;;;;;;5035540;28;20499;-62
2022/07/01 11:20:13;;;;;;;11.90;10.70;;;19.70;90.30;;;;;;5038548;28;20437;-63
2022/07/01 11:22:41;;;;;;;11.27;10.17;;;19.60;90.20;;;;;;5034488;28;20495;-64
2022/07/01 11:25:10;;;;;;;11.13;10.03;;;19.40;90.50;;;;;;5034441;28;20449;-66
2022/07/01 11:27:39;;;;;;;13.43;12.07;;;19.30;90.90;;;;;;5034321;28;20500;-65
2022/07/01 11:30:11;;;;;;;14.03;12.50;;;19.30;91.10;;;;;;5034166;28;20477;-65
2022/07/01 11:32:42;;;;;;;14.27;12.87;;;19.20;90.90;;;;;;5033340;28;20493;-63
2022/07/01 11:40:52;;;;;;;11.60;8.90;;;18.90;91.30;;;;;;5034613;28;20960;-64
2022/07/01 11:43:22;;;;;;;9.43;8.53;;;19.00;91.40;;;;;;5035808;28;20468;-65
2022/07/01 11:45:49;;;;;;;9.30;8.03;;;19.00;91.10;;;;;;5034397;28;20929;-64
2022/07/01 11:48:34;;;;;;;8.90;8.00;;;19.00;90.60;;;;;;5034223;28;20444;-65
2022/07/01 11:51:02;;;;;;;11.10;8.73;;;19.10;90.00;;;;;;5032790;28;20558;-65
2022/07/01 11:53:31;;;;;;;7.57;6.90;;;19.20;88.80;;;;;;5033668;28;20988;-64
2022/07/01 11:56:00;;;;;;;6.30;5.70;;;19.20;88.10;;;;;;5033296;28;20499;-63
2022/07/01 11:58:42;;;;;;;8.87;6.27;;;19.10;86.30;;;;;;5033821;28;20539;-65
2022/07/01 12:01:10;;;;;;;5.83;5.33;;;19.00;85.10;;;;;;5033454;28;20453;-65
2022/07/01 12:03:38;;;;;;;6.10;5.38;;;18.90;84.30;;;;;;5038676;28;20418;-63
2022/07/01 12:06:06;;;;;;;6.33;5.73;;;18.90;82.50;;;;;;5043026;28;20737;-64
2022/07/01 12:08:35;;;;;;;5.90;5.40;;;18.90;82.10;;;;;;5042899;28;20441;-64
2022/07/01 12:11:02;;;;;;;5.90;4.50;;;18.90;82.20;;;;;;5042586;28;20511;-64
2022/07/01 12:13:30;;;;;;;5.73;5.20;;;18.90;81.90;;;;;;5041496;28;20449;-65
2022/07/01 12:16:07;;;;;;;5.37;4.87;;;18.90;80.70;;;;;;5033878;28;20933;-64
2022/07/01 12:18:34;;;;;;;4.43;4.03;;;18.90;80.30;;;;;;5033521;28;20431;-64
2022/07/01 12:21:02;;;;;;;5.47;4.97;;;19.00;80.30;;;;;;5033414;28;20440;-65
2022/07/01 12:23:30;;;;;;;4.90;4.40;;;19.20;79.50;;;;;;5033621;28;20929;-64
2022/07/01 12:25:59;;;;;;;5.90;4.67;;;19.40;78.60;;;;;;5033289;28;20448;-64
2022/07/01 12:28:31;;;;;;;5.57;4.60;;;19.40;77.10;;;;;;5033214;28;20476;-64
2022/07/01 12:31:07;;;;;;;5.03;4.53;;;19.30;76.70;;;;;;5034982;28;20484;-64
2022/07/01 12:33:39;;;;;;;8.07;5.30;;;19.30;77.40;;;;;;5037216;28;20432;-63
2022/07/01 12:36:08;;;;;;;5.37;4.20;;;19.40;77.40;;;;;;5037624;28;20429;-64
2022/07/01 12:38:35;;;;;;;5.23;4.37;;;19.40;77.40;;;;;;5038398;28;20452;-64
2022/07/01 12:41:24;;;;;;;4.97;4.43;;;19.40;77.50;;;;;;5037788;28;20445;-64
2022/07/01 12:43:52;;;;;;;5.97;4.97;;;19.40;78.00;;;;;;5038067;28;20448;-63
2022/07/01 12:46:28;;;;;;;5.87;4.83;;;19.40;78.50;;;;;;5037760;28;20441;-64
2022/07/01 12:48:56;;;;;;;7.20;6.33;;;19.20;79.80;;;;;;5038011;28;20433;-64
2022/07/01 12:51:30;;;;;;;5.60;5.10;;;19.10;80.80;;;;;;5039541;28;20520;-63
2022/07/01 12:53:58;;;;;;;4.90;4.50;;;19.10;81.40;;;;;;5039847;28;20515;-63
2022/07/01 12:56:29;;;;;;;5.23;4.83;;;19.20;81.50;;;;;;5038045;28;20875;-63
2022/07/01 12:58:56;;;;;;;6.07;5.57;;;19.30;81.60;;;;;;5036971;28;20491;-64
2022/07/01 13:01:25;;;;;;;5.73;5.13;;;19.30;82.60;;;;;;5036562;28;20881;-63
2022/07/01 13:03:52;;;;;;;5.43;4.90;;;19.20;83.50;;;;;;5036694;28;20445;-65
2022/07/01 13:06:20;;;;;;;6.70;5.17;;;19.00;83.80;;;;;;5036934;28;20445;-64
2022/07/01 13:08:47;;;;;;;5.70;5.00;;;18.90;84.90;;;;;;5043014;28;20929;-64
2022/07/01 13:11:14;;;;;;;5.50;5.00;;;18.80;85.70;;;;;;5037596;28;20897;-63
2022/07/01 13:13:43;;;;;;;5.87;5.10;;;18.80;86.70;;;;;;5036881;28;20754;-63
2022/07/01 13:16:10;;;;;;;6.83;4.70;;;19.00;87.50;;;;;;5036245;28;20477;-64